createdAt,value
2023-02-15T00:00:21.489Z,8.895
2023-02-15T00:01:19.780Z,8.894
2023-02-15T00:02:19.600Z,8.868
2023-02-15T00:03:19.635Z,8.855
2023-02-15T00:04:19.898Z,8.815
2023-02-15T00:05:20.215Z,8.795
2023-02-15T00:06:19.573Z,8.784
2023-02-15T00:07:19.630Z,8.774
2023-02-15T00:08:19.500Z,8.760
2023-02-15T00:09:19.299Z,8.739
2023-02-15T00:10:19.365Z,8.734
2023-02-15T00:11:19.330Z,8.704
2023-02-15T00:12:19.166Z,8.694
2023-02-15T00:13:18.992Z,8.666
2023-02-15T00:14:19.773Z,8.678
2023-02-15T00:15:20.034Z,8.689
2023-02-15T00:16:19.105Z,8.659
2023-02-15T00:17:19.213Z,8.671
2023-02-15T00:18:20.215Z,8.659
2023-02-15T00:19:19.776Z,8.626
2023-02-15T00:20:19.808Z,8.600
2023-02-15T00:21:19.697Z,8.590
2023-02-15T00:22:19.560Z,8.590
2023-02-15T00:23:19.693Z,8.569
2023-02-15T00:24:19.574Z,8.564
2023-02-15T00:25:19.553Z,8.545
2023-02-15T00:26:20.142Z,8.484
2023-02-15T00:27:19.881Z,8.449
2023-02-15T00:28:19.774Z,8.465
2023-02-15T00:29:20.176Z,8.475
2023-02-15T00:30:20.560Z,8.430
2023-02-15T00:31:19.665Z,8.414
2023-02-15T00:32:20.060Z,8.435
2023-02-15T00:33:19.972Z,8.460
2023-02-15T00:34:19.983Z,8.439
2023-02-15T00:35:19.840Z,8.420
2023-02-15T00:36:19.496Z,8.434
2023-02-15T00:37:19.454Z,8.454
2023-02-15T00:38:19.188Z,8.449
2023-02-15T00:39:20.048Z,8.435
2023-02-15T00:40:19.209Z,8.439
2023-02-15T00:41:19.800Z,8.454
2023-02-15T00:42:19.126Z,8.449
2023-02-15T00:43:19.219Z,8.439
2023-02-15T00:44:19.333Z,8.439
2023-02-15T00:45:19.853Z,8.430
2023-02-15T00:46:19.250Z,8.420
2023-02-15T00:47:19.048Z,8.420
2023-02-15T00:48:19.039Z,8.425
2023-02-15T00:49:19.342Z,8.420
2023-02-15T00:50:19.576Z,8.420
2023-02-15T00:51:18.820Z,8.399
2023-02-15T00:52:19.104Z,8.390
2023-02-15T00:53:19.436Z,8.399
2023-02-15T00:54:19.738Z,8.430
2023-02-15T00:55:19.268Z,8.390
2023-02-15T00:56:19.428Z,8.374
2023-02-15T00:57:18.849Z,8.368
2023-02-15T00:58:19.065Z,8.321
2023-02-15T00:59:19.611Z,8.310
2023-02-15T01:00:20.023Z,8.244
2023-02-15T01:01:21.821Z,8.245
2023-02-15T01:02:20.116Z,8.255
2023-02-15T01:03:20.018Z,8.25
2023-02-15T01:04:19.498Z,8.254
2023-02-15T01:05:19.904Z,8.244
2023-02-15T01:06:19.564Z,8.265
2023-02-15T01:07:19.379Z,8.277
2023-02-15T01:08:18.980Z,8.255
2023-02-15T01:09:19.862Z,8.289
2023-02-15T01:10:19.622Z,8.25
2023-02-15T01:11:19.635Z,8.194
2023-02-15T01:12:19.534Z,8.142
2023-02-15T01:13:19.255Z,8.166
2023-02-15T01:14:19.923Z,8.171
2023-02-15T01:15:20.012Z,8.204
2023-02-15T01:16:19.579Z,8.187
2023-02-15T01:17:19.561Z,8.189
2023-02-15T01:18:19.309Z,8.194
2023-02-15T01:19:19.729Z,8.194
2023-02-15T01:20:19.597Z,8.189
2023-02-15T01:21:19.560Z,8.177
2023-02-15T01:22:19.009Z,8.149
2023-02-15T01:23:19.776Z,8.166
2023-02-15T01:24:19.366Z,8.125
2023-02-15T01:25:19.288Z,8.100
2023-02-15T01:26:19.760Z,8.074
2023-02-15T01:27:19.343Z,8.039
2023-02-15T01:28:18.671Z,8.060
2023-02-15T01:29:19.401Z,8.050
2023-02-15T01:30:19.575Z,7.994
2023-02-15T01:31:19.819Z,8
2023-02-15T01:32:19.915Z,7.985
2023-02-15T01:33:19.865Z,7.974
2023-02-15T01:34:19.473Z,7.989
2023-02-15T01:35:19.243Z,7.965
2023-02-15T01:36:19.996Z,7.969
2023-02-15T01:37:19.813Z,7.954
2023-02-15T01:38:19.569Z,7.934
2023-02-15T01:39:19.733Z,7.920
2023-02-15T01:40:19.602Z,7.905
2023-02-15T01:41:19.427Z,7.900
2023-02-15T01:42:19.420Z,7.879
2023-02-15T01:43:19.673Z,7.879
2023-02-15T01:44:20.017Z,7.894
2023-02-15T01:45:20.293Z,7.849
2023-02-15T01:46:20.231Z,7.839
2023-02-15T01:47:19.728Z,7.784
2023-02-15T01:48:19.900Z,7.755
2023-02-15T01:49:20.593Z,7.724
2023-02-15T01:50:19.879Z,7.724
2023-02-15T01:51:19.482Z,7.715
2023-02-15T01:52:20.017Z,7.695
2023-02-15T01:53:19.749Z,7.719
2023-02-15T01:54:19.505Z,7.724
2023-02-15T01:55:19.285Z,7.724
2023-02-15T01:56:19.501Z,7.730
2023-02-15T01:57:19.214Z,7.739
2023-02-15T01:58:19.559Z,7.744
2023-02-15T01:59:19.334Z,7.730
2023-02-15T02:00:20.042Z,7.704
2023-02-15T02:01:19.531Z,7.715
2023-02-15T02:02:19.469Z,7.724
2023-02-15T02:03:19.736Z,7.724
2023-02-15T02:04:19.780Z,7.698
2023-02-15T02:05:20.074Z,7.709
2023-02-15T02:06:19.048Z,7.683
2023-02-15T02:07:19.833Z,7.704
2023-02-15T02:08:19.196Z,7.710
2023-02-15T02:09:19.683Z,7.689
2023-02-15T02:10:19.478Z,7.659
2023-02-15T02:11:18.939Z,7.625
2023-02-15T02:12:19.559Z,7.637
2023-02-15T02:13:19.567Z,7.626
2023-02-15T02:14:19.272Z,7.655
2023-02-15T02:15:20.017Z,7.649
2023-02-15T02:16:19.424Z,7.637
2023-02-15T02:17:19.518Z,7.659
2023-02-15T02:18:19.434Z,7.644
2023-02-15T02:19:19.772Z,7.640
2023-02-15T02:20:19.846Z,7.631
2023-02-15T02:21:20.162Z,7.610
2023-02-15T02:22:19.749Z,7.586
2023-02-15T02:23:19.363Z,7.570
2023-02-15T02:24:19.712Z,7.574
2023-02-15T02:25:19.741Z,7.583
2023-02-15T02:26:19.767Z,7.598
2023-02-15T02:27:19.576Z,7.585
2023-02-15T02:28:19.402Z,7.594
2023-02-15T02:29:19.833Z,7.579
2023-02-15T02:30:20.335Z,7.554
2023-02-15T02:31:19.497Z,7.539
2023-02-15T02:32:19.282Z,7.519
2023-02-15T02:33:19.608Z,7.489
2023-02-15T02:34:19.491Z,7.489
2023-02-15T02:35:19.718Z,7.474
2023-02-15T02:36:19.585Z,7.469
2023-02-15T02:37:19.618Z,7.480
2023-02-15T02:38:19.656Z,7.465
2023-02-15T02:39:19.725Z,7.485
2023-02-15T02:40:19.577Z,7.469
2023-02-15T02:41:19.325Z,7.489
2023-02-15T02:42:19.873Z,7.454
2023-02-15T02:43:19.616Z,7.454
2023-02-15T02:44:19.191Z,7.449
2023-02-15T02:45:20.436Z,7.460
2023-02-15T02:46:19.354Z,7.440
2023-02-15T02:47:19.656Z,7.445
2023-02-15T02:48:19.527Z,7.425
2023-02-15T02:49:19.327Z,7.394
2023-02-15T02:50:19.560Z,7.373
2023-02-15T02:51:19.387Z,7.334
2023-02-15T02:52:20.023Z,7.316
2023-02-15T02:53:19.976Z,7.304
2023-02-15T02:54:19.493Z,7.300
2023-02-15T02:55:19.528Z,7.304
2023-02-15T02:56:19.495Z,7.295
2023-02-15T02:57:20.206Z,7.269
2023-02-15T02:58:19.566Z,7.244
2023-02-15T02:59:19.318Z,7.280
2023-02-15T03:00:21.031Z,7.295
2023-02-15T03:01:19.881Z,7.284
2023-02-15T03:02:19.833Z,7.264
2023-02-15T03:03:19.534Z,7.260
2023-02-15T03:04:19.933Z,7.269
2023-02-15T03:05:19.730Z,7.244
2023-02-15T03:06:19.809Z,7.210
2023-02-15T03:07:20.044Z,7.204
2023-02-15T03:08:19.782Z,7.224
2023-02-15T03:09:19.795Z,7.244
2023-02-15T03:10:19.803Z,7.204
2023-02-15T03:11:19.119Z,7.230
2023-02-15T03:12:19.905Z,7.204
2023-02-15T03:13:19.528Z,7.184
2023-02-15T03:14:19.532Z,7.177
2023-02-15T03:15:19.466Z,7.204
2023-02-15T03:16:19.447Z,7.210
2023-02-15T03:17:19.550Z,7.235
2023-02-15T03:18:19.240Z,7.199
2023-02-15T03:19:19.819Z,7.195
2023-02-15T03:20:19.517Z,7.215
2023-02-15T03:21:20.062Z,7.199
2023-02-15T03:22:19.440Z,7.218
2023-02-15T03:23:19.356Z,7.149
2023-02-15T03:24:20.022Z,7.155
2023-02-15T03:25:19.816Z,7.171
2023-02-15T03:26:19.783Z,7.085
2023-02-15T03:27:19.909Z,7.085
2023-02-15T03:28:20.157Z,7.059
2023-02-15T03:29:19.582Z,7.085
2023-02-15T03:30:19.981Z,7.074
2023-02-15T03:31:20.021Z,7.105
2023-02-15T03:32:20.450Z,7.114
2023-02-15T03:33:19.355Z,7.105
2023-02-15T03:34:20.159Z,7.131
2023-02-15T03:35:19.836Z,7.074
2023-02-15T03:36:19.593Z,7.039
2023-02-15T03:37:19.682Z,7.045
2023-02-15T03:38:19.631Z,7.034
2023-02-15T03:39:19.942Z,7
2023-02-15T03:40:20.012Z,6.988
2023-02-15T03:41:19.962Z,6.974
2023-02-15T03:42:20.283Z,6.967
2023-02-15T03:43:19.178Z,6.972
2023-02-15T03:44:19.484Z,6.989
2023-02-15T03:45:20.302Z,6.985
2023-02-15T03:46:19.830Z,6.969
2023-02-15T03:47:19.275Z,6.994
2023-02-15T03:48:19.789Z,7.010
2023-02-15T03:49:19.548Z,6.994
2023-02-15T03:50:20.078Z,6.980
2023-02-15T03:51:20.054Z,6.969
2023-02-15T03:52:20.000Z,6.960
2023-02-15T03:53:21.843Z,6.969
2023-02-15T03:54:20.280Z,6.985
2023-02-15T03:55:20.456Z,6.960
2023-02-15T03:56:19.800Z,6.929
2023-02-15T03:57:20.226Z,6.909
2023-02-15T03:58:20.011Z,6.929
2023-02-15T03:59:20.161Z,6.925
2023-02-15T04:00:20.851Z,6.920
2023-02-15T04:01:20.274Z,6.909
2023-02-15T04:02:21.041Z,6.945
2023-02-15T04:03:20.326Z,6.903
2023-02-15T04:04:20.243Z,6.888
2023-02-15T04:05:19.437Z,6.905
2023-02-15T04:06:19.752Z,6.909
2023-02-15T04:07:20.021Z,6.905
2023-02-15T04:08:19.878Z,6.885
2023-02-15T04:09:19.870Z,6.872
2023-02-15T04:10:20.412Z,6.861
2023-02-15T04:11:20.394Z,6.849
2023-02-15T04:12:20.115Z,6.883
2023-02-15T04:13:19.503Z,6.889
2023-02-15T04:14:19.936Z,6.905
2023-02-15T04:15:20.235Z,6.905
2023-02-15T04:16:20.046Z,6.914
2023-02-15T04:17:19.471Z,6.934
2023-02-15T04:18:19.778Z,6.940
2023-02-15T04:19:19.974Z,6.905
2023-02-15T04:20:21.718Z,6.879
2023-02-15T04:21:21.160Z,6.876
2023-02-15T04:22:21.091Z,6.861
2023-02-15T04:23:20.531Z,6.880
2023-02-15T04:24:20.528Z,6.855
2023-02-15T04:25:20.542Z,6.810
2023-02-15T04:26:20.730Z,6.821
2023-02-15T04:27:20.859Z,6.800
2023-02-15T04:28:20.862Z,6.821
2023-02-15T04:29:19.794Z,6.810
2023-02-15T04:30:21.149Z,6.800
2023-02-15T04:31:20.414Z,6.809
2023-02-15T04:32:20.610Z,6.800
2023-02-15T04:33:20.352Z,6.804
2023-02-15T04:34:21.007Z,6.824
2023-02-15T04:35:20.456Z,6.827
2023-02-15T04:36:21.007Z,6.806
2023-02-15T04:37:20.067Z,6.75
2023-02-15T04:38:20.391Z,6.724
2023-02-15T04:39:20.250Z,6.755
2023-02-15T04:40:20.089Z,6.735
2023-02-15T04:41:20.107Z,6.709
2023-02-15T04:42:20.044Z,6.682
2023-02-15T04:43:19.920Z,6.649
2023-02-15T04:44:20.732Z,6.671
2023-02-15T04:45:20.922Z,6.683
2023-02-15T04:46:19.762Z,6.690
2023-02-15T04:47:19.317Z,6.695
2023-02-15T04:48:20.038Z,6.724
2023-02-15T04:49:19.642Z,6.739
2023-02-15T04:50:19.379Z,6.690
2023-02-15T04:51:19.327Z,6.665
2023-02-15T04:52:19.585Z,6.637
2023-02-15T04:53:19.296Z,6.644
2023-02-15T04:54:19.141Z,6.668
2023-02-15T04:55:20.194Z,6.637
2023-02-15T04:56:19.552Z,6.626
2023-02-15T04:57:19.255Z,6.605
2023-02-15T04:58:19.029Z,6.579
2023-02-15T04:59:20.156Z,6.553
2023-02-15T05:00:20.777Z,6.573
2023-02-15T05:01:19.711Z,6.604
2023-02-15T05:02:19.043Z,6.625
2023-02-15T05:03:19.729Z,6.620
2023-02-15T05:04:19.560Z,6.626
2023-02-15T05:05:19.954Z,6.631
2023-02-15T05:06:19.421Z,6.605
2023-02-15T05:07:19.738Z,6.592
2023-02-15T05:08:19.696Z,6.610
2023-02-15T05:09:19.286Z,6.644
2023-02-15T05:10:20.124Z,6.620
2023-02-15T05:11:19.884Z,6.590
2023-02-15T05:12:19.520Z,6.585
2023-02-15T05:13:19.024Z,6.565
2023-02-15T05:14:19.514Z,6.559
2023-02-15T05:15:19.916Z,6.534
2023-02-15T05:16:19.497Z,6.550
2023-02-15T05:17:19.179Z,6.574
2023-02-15T05:18:19.249Z,6.585
2023-02-15T05:19:18.613Z,6.594
2023-02-15T05:20:19.544Z,6.565
2023-02-15T05:21:19.348Z,6.510
2023-02-15T05:22:19.522Z,6.449
2023-02-15T05:23:19.042Z,6.480
2023-02-15T05:25:19.598Z,6.5
2023-02-15T05:26:19.538Z,6.514
2023-02-15T05:27:19.916Z,6.530
2023-02-15T05:28:19.496Z,6.505
2023-02-15T05:29:19.255Z,6.489
2023-02-15T05:30:22.008Z,6.489
2023-02-15T05:31:20.170Z,6.510
2023-02-15T05:32:19.880Z,6.530
2023-02-15T05:33:19.393Z,6.554
2023-02-15T05:34:19.169Z,6.534
2023-02-15T05:35:19.768Z,6.505
2023-02-15T05:36:19.923Z,6.480
2023-02-15T05:37:19.601Z,6.494
2023-02-15T05:38:19.639Z,6.525
2023-02-15T05:39:20.188Z,6.514
2023-02-15T05:40:20.292Z,6.510
2023-02-15T05:41:19.747Z,6.525
2023-02-15T05:42:19.902Z,6.519
2023-02-15T05:43:20.138Z,6.514
2023-02-15T05:44:19.768Z,6.485
2023-02-15T05:45:20.072Z,6.485
2023-02-15T05:46:20.175Z,6.480
2023-02-15T05:47:19.686Z,6.485
2023-02-15T05:48:19.732Z,6.505
2023-02-15T05:49:19.723Z,6.505
2023-02-15T05:50:19.962Z,6.514
2023-02-15T05:51:19.274Z,6.494
2023-02-15T05:52:19.663Z,6.505
2023-02-15T05:53:19.301Z,6.494
2023-02-15T05:54:19.555Z,6.445
2023-02-15T05:55:19.751Z,6.425
2023-02-15T05:56:20.119Z,6.394
2023-02-15T05:57:19.528Z,6.400
2023-02-15T05:58:19.549Z,6.383
2023-02-15T05:59:19.507Z,6.368
2023-02-15T06:00:20.677Z,6.380
2023-02-15T06:01:19.399Z,6.373
2023-02-15T06:02:20.282Z,6.385
2023-02-15T06:03:19.469Z,6.400
2023-02-15T06:04:19.143Z,6.400
2023-02-15T06:05:20.398Z,6.420
2023-02-15T06:06:19.372Z,6.440
2023-02-15T06:07:19.940Z,6.445
2023-02-15T06:08:19.811Z,6.460
2023-02-15T06:09:19.662Z,6.469
2023-02-15T06:10:19.262Z,6.454
2023-02-15T06:11:19.431Z,6.480
2023-02-15T06:12:19.484Z,6.465
2023-02-15T06:13:19.306Z,6.449
2023-02-15T06:14:19.686Z,6.450
2023-02-15T06:15:19.929Z,6.453
2023-02-15T06:16:20.187Z,6.460
2023-02-15T06:17:19.885Z,6.449
2023-02-15T06:18:19.678Z,6.449
2023-02-15T06:19:19.619Z,6.461
2023-02-15T06:20:19.537Z,6.449
2023-02-15T06:21:19.215Z,6.426
2023-02-15T06:22:19.941Z,6.418
2023-02-15T06:23:19.987Z,6.394
2023-02-15T06:24:19.806Z,6.398
2023-02-15T06:25:19.721Z,6.383
2023-02-15T06:26:19.829Z,6.385
2023-02-15T06:27:20.093Z,6.367
2023-02-15T06:28:20.223Z,6.355
2023-02-15T06:29:19.346Z,6.344
2023-02-15T06:30:19.705Z,6.349
2023-02-15T06:31:19.646Z,6.339
2023-02-15T06:32:19.693Z,6.321
2023-02-15T06:33:19.472Z,6.310
2023-02-15T06:34:20.258Z,6.284
2023-02-15T06:35:19.975Z,6.275
2023-02-15T06:36:19.277Z,6.269
2023-02-15T06:37:19.912Z,6.260
2023-02-15T06:38:19.712Z,6.25
2023-02-15T06:39:19.258Z,6.244
2023-02-15T06:40:19.739Z,6.25
2023-02-15T06:41:19.596Z,6.25
2023-02-15T06:42:19.411Z,6.239
2023-02-15T06:43:19.000Z,6.239
2023-02-15T06:44:19.623Z,6.244
2023-02-15T06:45:19.451Z,6.215
2023-02-15T06:46:19.424Z,6.218
2023-02-15T06:47:20.333Z,6.204
2023-02-15T06:48:19.559Z,6.224
2023-02-15T06:49:19.658Z,6.244
2023-02-15T06:50:19.806Z,6.25
2023-02-15T06:51:24.481Z,6.260
2023-02-15T06:52:19.594Z,6.275
2023-02-15T06:53:19.229Z,6.235
2023-02-15T06:54:19.683Z,6.260
2023-02-15T06:55:19.618Z,6.280
2023-02-15T06:56:19.348Z,6.260
2023-02-15T06:57:19.717Z,6.275
2023-02-15T06:58:19.453Z,6.255
2023-02-15T06:59:19.859Z,6.244
2023-02-15T07:00:21.079Z,6.244
2023-02-15T07:01:20.076Z,6.210
2023-02-15T07:02:20.220Z,6.260
2023-02-15T07:03:19.893Z,6.275
2023-02-15T07:04:20.560Z,6.304
2023-02-15T07:05:20.134Z,6.321
2023-02-15T07:06:20.145Z,6.315
2023-02-15T07:07:19.913Z,6.322
2023-02-15T07:08:20.499Z,6.355
2023-02-15T07:09:20.349Z,6.383
2023-02-15T07:10:20.440Z,6.367
2023-02-15T07:11:19.873Z,6.374
2023-02-15T07:12:19.906Z,6.409
2023-02-15T07:13:19.613Z,6.429
2023-02-15T07:14:19.982Z,6.434
2023-02-15T07:15:20.489Z,6.445
2023-02-15T07:16:20.366Z,6.454
2023-02-15T07:18:19.884Z,6.5
2023-02-15T07:19:20.127Z,6.5
2023-02-15T07:20:21.077Z,6.5
2023-02-15T07:21:19.930Z,6.494
2023-02-15T07:22:19.673Z,6.505
2023-02-15T07:23:19.936Z,6.514
2023-02-15T07:24:20.035Z,6.530
2023-02-15T07:25:20.273Z,6.574
2023-02-15T07:26:19.716Z,6.570
2023-02-15T07:27:19.727Z,6.590
2023-02-15T07:28:19.683Z,6.599
2023-02-15T07:29:19.481Z,6.590
2023-02-15T07:30:19.881Z,6.625
2023-02-15T07:31:19.775Z,6.631
2023-02-15T07:32:20.019Z,6.684
2023-02-15T07:33:20.063Z,6.704
2023-02-15T07:34:20.016Z,6.755
2023-02-15T07:35:20.457Z,6.760
2023-02-15T07:36:20.052Z,6.796
2023-02-15T07:37:20.214Z,6.788
2023-02-15T07:38:19.507Z,6.800
2023-02-15T07:39:20.029Z,6.842
2023-02-15T07:40:20.673Z,6.872
2023-02-15T07:41:20.413Z,6.914
2023-02-15T07:42:20.820Z,6.940
2023-02-15T07:43:20.531Z,6.972
2023-02-15T07:44:19.795Z,7.025
2023-02-15T07:45:20.564Z,7.034
2023-02-15T07:46:19.960Z,7.090
2023-02-15T07:47:20.325Z,7.165
2023-02-15T07:48:22.280Z,7.155
2023-02-15T07:49:20.265Z,7.178
2023-02-15T07:50:20.622Z,7.210
2023-02-15T07:51:20.588Z,7.195
2023-02-15T07:52:19.948Z,7.199
2023-02-15T07:53:19.644Z,7.219
2023-02-15T07:54:19.757Z,7.264
2023-02-15T07:55:19.860Z,7.316
2023-02-15T07:56:20.140Z,7.361
2023-02-15T07:57:20.310Z,7.425
2023-02-15T07:58:19.737Z,7.480
2023-02-15T07:59:20.069Z,7.525
2023-02-15T08:00:21.346Z,7.559
2023-02-15T08:01:19.766Z,7.590
2023-02-15T08:02:20.280Z,7.620
2023-02-15T08:03:19.873Z,7.688
2023-02-15T08:04:20.356Z,7.75
2023-02-15T08:05:20.037Z,7.800
2023-02-15T08:06:20.133Z,7.843
2023-02-15T08:07:20.049Z,7.894
2023-02-15T08:08:19.959Z,7.949
2023-02-15T08:10:19.511Z,8.034
2023-02-15T08:11:20.151Z,8.104
2023-02-15T08:12:18.680Z,8.159
2023-02-15T08:13:19.657Z,8.184
2023-02-15T08:14:19.622Z,8.215
2023-02-15T08:15:20.435Z,8.255
2023-02-15T08:16:19.908Z,8.328
2023-02-15T08:17:19.831Z,8.374
2023-02-15T08:18:20.058Z,8.395
2023-02-15T08:19:20.333Z,8.489
2023-02-15T08:20:20.590Z,8.505
2023-02-15T08:21:20.350Z,8.520
2023-02-15T08:22:20.534Z,8.555
2023-02-15T08:23:19.989Z,8.614
2023-02-15T08:24:20.540Z,8.677
2023-02-15T08:25:19.835Z,8.734
2023-02-15T08:26:20.155Z,8.784
2023-02-15T08:27:20.354Z,8.887
2023-02-15T08:28:19.646Z,8.944
2023-02-15T08:29:19.566Z,9.020
2023-02-15T08:30:20.150Z,9.055
2023-02-15T08:31:19.782Z,9.090
2023-02-15T08:32:20.065Z,9.125
2023-02-15T08:33:20.334Z,9.208
2023-02-15T08:34:19.949Z,9.279
2023-02-15T08:35:19.857Z,9.331
2023-02-15T08:36:20.057Z,9.444
2023-02-15T08:37:20.112Z,9.494
2023-02-15T08:38:20.499Z,9.494
2023-02-15T08:39:19.979Z,9.529
2023-02-15T08:40:20.674Z,9.524
2023-02-15T08:41:20.069Z,9.560
2023-02-15T08:42:20.403Z,9.590
2023-02-15T08:43:19.805Z,9.642
2023-02-15T08:44:19.937Z,9.954
2023-02-15T08:45:20.396Z,9.975
2023-02-15T08:46:20.028Z,9.975
2023-02-15T08:47:20.591Z,10.00
2023-02-15T08:48:19.844Z,9.994
2023-02-15T08:49:20.311Z,9.979
2023-02-15T08:50:20.091Z,9.978
2023-02-15T08:51:20.153Z,9.994
2023-02-15T08:52:22.314Z,10.03
2023-02-15T08:53:19.766Z,10.08
2023-02-15T08:54:20.101Z,10.14
2023-02-15T08:55:20.293Z,10.18
2023-02-15T08:56:20.073Z,10.22
2023-02-15T08:57:20.274Z,10.29
2023-02-15T08:58:19.821Z,10.35
2023-02-15T08:59:20.086Z,10.42
2023-02-15T09:00:21.669Z,10.47
2023-02-15T09:01:20.730Z,10.48
2023-02-15T09:02:21.185Z,10.53
2023-02-15T09:03:21.181Z,10.59
2023-02-15T09:04:21.444Z,10.64
2023-02-15T09:05:21.235Z,10.70
2023-02-15T09:06:21.444Z,10.73
2023-02-15T09:07:21.209Z,10.79
2023-02-15T09:08:20.856Z,10.80
2023-02-15T09:09:21.468Z,10.87
2023-02-15T09:10:20.929Z,10.90
2023-02-15T09:11:21.264Z,10.96
2023-02-15T09:12:20.841Z,11.02
2023-02-15T09:13:20.302Z,11.08
2023-02-15T09:14:25.549Z,11.15
2023-02-15T09:15:20.260Z,11.26
2023-02-15T09:16:19.550Z,11.28
2023-02-15T09:17:19.800Z,11.35
2023-02-15T09:18:25.325Z,11.38
2023-02-15T09:19:19.729Z,11.46
2023-02-15T09:20:20.291Z,11.52
2023-02-15T09:21:19.517Z,11.60
2023-02-15T09:22:20.405Z,11.70
2023-02-15T09:23:26.910Z,11.81
2023-02-15T09:24:20.220Z,11.89
2023-02-15T09:25:20.331Z,11.90
2023-02-15T09:26:19.858Z,11.93
2023-02-15T09:27:20.100Z,11.92
2023-02-15T09:28:20.271Z,11.95
2023-02-15T09:29:19.642Z,11.97
2023-02-15T09:30:20.506Z,12.02
2023-02-15T09:31:19.694Z,12.05
2023-02-15T09:32:20.378Z,12.04
2023-02-15T09:33:19.727Z,12.04
2023-02-15T09:34:20.586Z,12.06
2023-02-15T09:35:19.980Z,12.12
2023-02-15T09:36:19.870Z,12.18
2023-02-15T09:37:20.155Z,12.22
2023-02-15T09:38:34.099Z,12.23
2023-02-15T09:39:20.183Z,12.27
2023-02-15T09:40:19.667Z,12.32
2023-02-15T09:41:19.919Z,12.38
2023-02-15T09:42:19.446Z,12.44
2023-02-15T09:43:19.884Z,12.50
2023-02-15T09:44:20.125Z,12.59
2023-02-15T09:45:19.938Z,12.62
2023-02-15T09:46:20.073Z,12.70
2023-02-15T09:47:19.796Z,12.75
2023-02-15T09:48:20.005Z,12.79
2023-02-15T09:49:20.610Z,12.89
2023-02-15T09:50:39.429Z,13.01
2023-02-15T09:51:19.781Z,13.07
2023-02-15T09:52:20.610Z,13.12
2023-02-15T09:53:20.124Z,13.17
2023-02-15T09:54:19.929Z,13.18
2023-02-15T09:55:19.679Z,13.23
2023-02-15T09:56:21.134Z,13.35
2023-02-15T09:57:19.816Z,13.40
2023-02-15T09:58:20.269Z,13.48
2023-02-15T09:59:19.731Z,13.5
2023-02-15T10:00:20.870Z,13.52
2023-02-15T10:01:19.839Z,13.53
2023-02-15T10:02:41.226Z,13.58
2023-02-15T10:03:19.967Z,13.67
2023-02-15T10:04:19.800Z,13.78
2023-02-15T10:05:20.546Z,13.89
2023-02-15T10:06:19.588Z,13.99
2023-02-15T10:07:20.175Z,14.03
2023-02-15T10:08:19.668Z,14.10
2023-02-15T10:09:20.145Z,14.12
2023-02-15T10:10:19.647Z,11
2023-02-15T10:11:20.166Z,14.22
2023-02-15T10:12:19.685Z,14.36
2023-02-15T10:13:19.990Z,14.47
2023-02-15T10:14:19.944Z,14.55
2023-02-15T10:15:20.972Z,14.51
2023-02-15T10:16:19.393Z,14.44
2023-02-15T10:17:20.421Z,14.52
2023-02-15T10:18:19.402Z,14.59
2023-02-15T10:19:19.869Z,14.55
2023-02-15T10:20:20.695Z,14.56
2023-02-15T10:21:19.840Z,14.55
2023-02-15T10:22:20.172Z,14.56
2023-02-15T10:23:19.608Z,14.64
2023-02-15T10:24:20.433Z,14.67
2023-02-15T10:25:19.960Z,14.69
2023-02-15T10:26:19.499Z,14.73
2023-02-15T10:27:19.933Z,14.77
2023-02-15T10:28:19.761Z,14.78
2023-02-15T10:29:20.437Z,14.79
2023-02-15T10:30:20.722Z,14.78
2023-02-15T10:31:20.872Z,14.79
2023-02-15T10:32:20.787Z,14.77
2023-02-15T10:33:20.471Z,14.77
2023-02-15T10:34:20.410Z,14.80
2023-02-15T10:35:20.907Z,14.85
2023-02-15T10:36:20.606Z,14.88
2023-02-15T10:37:20.765Z,14.87
2023-02-15T10:38:20.609Z,14.89
2023-02-15T10:39:20.817Z,14.93
2023-02-15T10:40:21.248Z,14.91
2023-02-15T10:41:20.783Z,14.95
2023-02-15T10:42:20.707Z,15.04
2023-02-15T10:43:21.277Z,15.04
2023-02-15T10:44:21.031Z,15.03
2023-02-15T10:45:21.042Z,15.08
2023-02-15T10:46:21.059Z,15.13
2023-02-15T10:47:21.390Z,15.13
2023-02-15T10:48:21.670Z,15.14
2023-02-15T10:49:20.827Z,15.13
2023-02-15T10:50:20.401Z,15.22
2023-02-15T10:51:20.262Z,15.31
2023-02-15T10:52:20.603Z,15.32
2023-02-15T10:53:20.273Z,15.39
2023-02-15T10:54:20.989Z,15.44
2023-02-15T10:55:20.578Z,15.44
2023-02-15T10:56:21.011Z,15.46
2023-02-15T10:57:20.650Z,15.48
2023-02-15T10:58:19.877Z,15.54
2023-02-15T10:59:20.461Z,15.56
2023-02-15T11:00:21.108Z,15.60
2023-02-15T11:01:20.361Z,15.68
2023-02-15T11:02:20.604Z,15.76
2023-02-15T11:03:20.237Z,15.76
2023-02-15T11:04:20.536Z,15.76
2023-02-15T11:05:20.817Z,15.79
2023-02-15T11:06:20.375Z,15.82
2023-02-15T11:07:19.969Z,15.80
2023-02-15T11:08:20.468Z,15.85
2023-02-15T11:09:19.934Z,15.87
2023-02-15T11:10:20.370Z,16.07
2023-02-15T11:11:20.095Z,16.12
2023-02-15T11:12:20.598Z,16.10
2023-02-15T11:13:19.467Z,16.12
2023-02-15T11:14:20.104Z,16.14
2023-02-15T11:15:20.030Z,16.11
2023-02-15T11:16:20.213Z,16.13
2023-02-15T11:17:20.085Z,16.18
2023-02-15T11:18:19.915Z,16.24
2023-02-15T11:19:20.425Z,16.28
2023-02-15T11:20:20.320Z,16.31
2023-02-15T11:21:20.155Z,16.39
2023-02-15T11:22:19.750Z,16.44
2023-02-15T11:23:19.921Z,16.50
2023-02-15T11:24:20.492Z,16.54
2023-02-15T11:25:20.364Z,16.57
2023-02-15T11:26:20.545Z,16.61
2023-02-15T11:27:20.854Z,16.55
2023-02-15T11:28:19.906Z,16.54
2023-02-15T11:29:19.746Z,16.56
2023-02-15T11:30:21.514Z,16.64
2023-02-15T11:31:19.763Z,16.66
2023-02-15T11:32:19.886Z,16.78
2023-02-15T11:33:19.643Z,16.85
2023-02-15T11:34:20.381Z,16.90
2023-02-15T11:35:20.621Z,16.93
2023-02-15T11:36:20.321Z,16.94
2023-02-15T11:37:20.130Z,16.96
2023-02-15T11:38:19.927Z,16.99
2023-02-15T11:39:20.561Z,17.15
2023-02-15T11:40:20.424Z,17.23
2023-02-15T11:41:20.028Z,17.19
2023-02-15T11:42:19.351Z,17.25
2023-02-15T11:43:20.533Z,17.32
2023-02-15T11:44:20.048Z,17.30
2023-02-15T11:45:20.545Z,17.30
2023-02-15T11:46:20.152Z,17.28
2023-02-15T11:47:20.809Z,17.29
2023-02-15T11:48:20.571Z,17.42
2023-02-15T11:49:24.901Z,17.33
2023-02-15T11:50:20.706Z,17.37
2023-02-15T11:51:25.650Z,17.39
2023-02-15T11:52:20.807Z,17.42
2023-02-15T11:53:28.035Z,17.47
2023-02-15T11:54:20.401Z,17.55
2023-02-15T11:55:21.526Z,17.53
2023-02-15T11:56:21.300Z,17.54
2023-02-15T11:57:21.814Z,17.56
2023-02-15T11:58:20.324Z,17.60
2023-02-15T11:59:20.657Z,17.61
2023-02-15T12:00:21.095Z,17.63
2023-02-15T12:01:35.224Z,17.67
2023-02-15T12:02:21.424Z,17.71
2023-02-15T12:03:23.633Z,17.77
2023-02-15T12:04:20.325Z,17.78
2023-02-15T12:05:20.972Z,17.78
2023-02-15T12:06:20.815Z,17.84
2023-02-15T12:07:20.129Z,17.90
2023-02-15T12:08:21.015Z,17.89
2023-02-15T12:09:23.153Z,17.95
2023-02-15T12:10:21.378Z,18
2023-02-15T12:11:21.081Z,18.03
2023-02-15T12:12:20.409Z,18.15
2023-02-15T12:13:20.359Z,18.15
2023-02-15T12:14:20.462Z,18.16
2023-02-15T12:15:20.852Z,18.19
2023-02-15T12:16:20.551Z,18.18
2023-02-15T12:17:20.591Z,18.18
2023-02-15T12:18:20.113Z,18.21
2023-02-15T12:19:39.373Z,18.21
2023-02-15T12:20:21.167Z,18.26
2023-02-15T12:21:20.651Z,18.25
2023-02-15T12:22:20.695Z,18.21
2023-02-15T12:23:20.605Z,18.20
2023-02-15T12:24:20.745Z,18.22
2023-02-15T12:25:20.927Z,18.23
2023-02-15T12:26:20.108Z,18.31
2023-02-15T12:27:42.247Z,18.56
2023-02-15T12:28:20.195Z,18.45
2023-02-15T12:29:20.525Z,18.44
2023-02-15T12:30:20.442Z,18.46
2023-02-15T12:31:21.028Z,18.41
2023-02-15T12:32:21.092Z,18.42
2023-02-15T12:33:20.290Z,18.51
2023-02-15T12:34:20.682Z,18.48
2023-02-15T12:35:21.702Z,18.5
2023-02-15T12:36:20.157Z,18.61
2023-02-15T12:37:20.115Z,18.51
2023-02-15T12:38:20.461Z,18.52
2023-02-15T12:39:20.913Z,18.46
2023-02-15T12:40:20.803Z,18.43
2023-02-15T12:41:20.553Z,18.39
2023-02-15T12:42:20.296Z,18.42
2023-02-15T12:43:20.615Z,18.40
2023-02-15T12:44:20.790Z,18.37
2023-02-15T12:45:21.028Z,18.41
2023-02-15T12:46:20.248Z,18.38
2023-02-15T12:47:20.658Z,18.33
2023-02-15T12:48:20.906Z,18.29
2023-02-15T12:49:20.852Z,18.30
2023-02-15T12:50:20.343Z,18.45
2023-02-15T12:51:20.215Z,18.38
2023-02-15T12:52:19.987Z,18.32
2023-02-15T12:53:20.724Z,18.43
2023-02-15T12:54:23.584Z,18.45
2023-02-15T12:55:20.843Z,18.43
2023-02-15T12:56:23.991Z,18.44